Riverton, CT (06065)

5:03 AM EDT on October 01, 2016 (GMT -0400)
Sandy Brook Ravine | | Change Station

Elev 935 ft 42.00 °N, 73.08 °W | Updated 2 seconds ago

Light Rain
Light Rain Mist
49.9 °F
Feels Like 50 °F
N
1.2
Wind Variable Wind from East
Gusts 1.2 mph

Today
High -- | Low -- °F
--% Chance of Precip.
Yesterday
High -- | Low -- °F
Precip. -- in
Pressure 30.29 in
Visibility 2.0 miles
Clouds Overcast 600 ft
Windchill 50 °F
Dew Point 49 °F
Humidity 97%
Rainfall 0.02 in
Snow Depth Not available.
6:49 AM 6:32 PM
New Moon, 0% visible
METAR KBDL 010851Z 36011KT 2SM -RA BR OVC006 09/08 A3029 RMK AO2 SFC VIS 5 SLP256 P0001 60002 T00940083 56009 $
Pressure 30.29 in
Visibility 2.0 miles
Clouds Overcast 600 ft
Windchill 50 °F
Dew Point 49 °F
Humidity 97%
Rainfall 0.02 in
Snow Depth Not available.
6:49 AM 6:32 PM
New Moon, 0% visible
METAR KBDL 010851Z 36011KT 2SM -RA BR OVC006 09/08 A3029 RMK AO2 SFC VIS 5 SLP256 P0001 60002 T00940083 56009 $

10-Day Weather Forecast

Almanac

Astronomy

Oct. 01, 2016 Rise Set
Actual Time
Civil Twilight
Nautical Twilight
Astronomical Twilight
Moon
Length of Visible Light
Length of Day
Tomorrow will be .
, % of the Moon is Illuminated

Today's Extremes

State Highs State Lows

Community

WunderPhotos

Upload Photos

1,942,898 photos uploaded!

WunderBlog® & News

Nearby

Air Quality

  Air Quality AQ Index Pollutant
Not available.

Snow Depth

Station Depth Elevation

Earthquake Activity

City Distance Mag. Time & Date
Minimum magnitude displayed is 2.5.

Coastal Water Temperatures

Place Temperature

Stations

Nearby Weather Stations

Station Location Temp. Windchill Dew Point Humidity Wind Precip. Elev Updated Type
                   

Watches & Warnings

There are currently no watches in effect.